createdAt,value
2018-11-10T00:01:24.527Z,160.67
2018-11-10T00:03:54.112Z,138.10
2018-11-10T00:06:23.753Z,140.37
2018-11-10T00:08:53.330Z,136.90
2018-11-10T00:11:23.016Z,134.07
2018-11-10T00:13:52.557Z,130.63
2018-11-10T00:16:22.304Z,126.00
2018-11-10T00:18:51.985Z,127.83
2018-11-10T00:21:21.653Z,126.73
2018-11-10T00:23:51.221Z,132.47
2018-11-10T00:26:20.808Z,135.33
2018-11-10T00:28:50.434Z,120.70
2018-11-10T00:31:20.057Z,130.17
2018-11-10T00:33:49.645Z,125.60
2018-11-10T00:36:19.240Z,128.13
2018-11-10T00:38:48.873Z,142.77
2018-11-10T00:41:18.424Z,126.57
2018-11-10T00:43:48.124Z,142.17
2018-11-10T00:46:17.686Z,138.07
2018-11-10T00:48:47.309Z,152.40
2018-11-10T00:51:16.989Z,160.60
2018-11-10T00:53:46.704Z,162.10
2018-11-10T00:56:16.301Z,155.23
2018-11-10T00:58:45.955Z,139.23
2018-11-10T01:01:15.496Z,148.50
2018-11-10T01:03:45.119Z,162.97
2018-11-10T01:06:14.670Z,147.73
2018-11-10T01:08:44.245Z,137.47
2018-11-10T01:11:13.814Z,137.73
2018-11-10T01:13:43.438Z,159.07
2018-11-10T01:16:13.009Z,167.27
2018-11-10T01:18:42.592Z,186.67
2018-11-10T01:21:12.098Z,169.07
2018-11-10T01:23:41.793Z,165.67
2018-11-10T01:26:11.396Z,151.80
2018-11-10T01:28:40.986Z,162.93
2018-11-10T01:31:10.510Z,151.00
2018-11-10T01:33:40.057Z,131.70
2018-11-10T01:36:09.612Z,152.00
2018-11-10T01:38:39.161Z,144.83
2018-11-10T01:41:08.817Z,143.23
2018-11-10T01:43:38.398Z,135.67
2018-11-10T01:46:07.989Z,138.00
2018-11-10T01:48:37.575Z,134.23
2018-11-10T01:51:07.388Z,128.57
2018-11-10T01:53:37.018Z,123.80
2018-11-10T01:56:06.997Z,125.97
2018-11-10T01:58:36.577Z,124.53
2018-11-10T02:01:06.539Z,135.73
2018-11-10T02:03:36.071Z,134.90
2018-11-10T02:06:05.691Z,129.53
2018-11-10T02:08:35.290Z,123.17
2018-11-10T02:11:04.947Z,112.97
2018-11-10T02:13:34.547Z,117.07
2018-11-10T02:16:04.122Z,126.20
2018-11-10T02:18:33.753Z,121.00
2018-11-10T02:21:03.425Z,120.30
2018-11-10T02:23:33.168Z,118.77
2018-11-10T02:26:02.940Z,122.03
2018-11-10T02:28:32.521Z,116.03
2018-11-10T02:31:02.150Z,107.47
2018-11-10T02:33:31.715Z,106.97
2018-11-10T02:36:01.280Z,108.37
2018-11-10T02:38:31.042Z,106.17
2018-11-10T02:41:00.600Z,100.33
2018-11-10T02:43:30.311Z,97.20
2018-11-10T02:45:59.970Z,95.07
2018-11-10T02:48:29.558Z,96.03
2018-11-10T02:50:59.139Z,105.80
2018-11-10T02:53:28.728Z,98.93
2018-11-10T02:55:58.350Z,109.27
2018-11-10T02:58:27.895Z,100.67
2018-11-10T03:00:57.451Z,103.27
2018-11-10T03:03:27.008Z,99.20
2018-11-10T03:05:56.625Z,101.27
2018-11-10T03:08:26.210Z,98.60
2018-11-10T03:10:55.878Z,112.87
2018-11-10T03:13:25.449Z,108.60
2018-11-10T03:15:55.030Z,103.10
2018-11-10T03:18:24.799Z,101.63
2018-11-10T03:20:54.418Z,98.30
2018-11-10T03:23:23.971Z,103.83
2018-11-10T03:25:53.584Z,97.27
2018-11-10T03:28:23.278Z,73.97
2018-11-10T03:30:52.934Z,60.43
2018-11-10T03:33:22.552Z,61.70
2018-11-10T03:35:52.138Z,58.43
2018-11-10T03:38:21.854Z,56.97
2018-11-10T03:40:51.420Z,60.03
2018-11-10T03:43:21.015Z,54.53
2018-11-10T03:45:50.580Z,55.27
2018-11-10T03:48:20.182Z,59.37
2018-11-10T03:50:49.736Z,55.10
2018-11-10T03:53:19.315Z,49.70
2018-11-10T03:55:48.921Z,54.70
2018-11-10T03:58:18.527Z,58.87
2018-11-10T04:00:48.089Z,55.50
2018-11-10T04:03:17.651Z,53.80
2018-11-10T04:05:47.203Z,55.03
2018-11-10T04:08:16.806Z,63.80
2018-11-10T04:10:46.400Z,56.67
2018-11-10T04:13:15.945Z,56.20
2018-11-10T04:15:45.569Z,56.20
2018-11-10T04:18:15.147Z,56.43
2018-11-10T04:20:44.698Z,59.70
2018-11-10T04:23:14.245Z,60.80
2018-11-10T04:25:43.774Z,64.73
2018-11-10T04:28:12.742Z,55.38
2018-11-10T04:30:42.373Z,62.27
2018-11-10T04:33:11.960Z,58.97
2018-11-10T04:35:41.504Z,56.88
2018-11-10T04:38:11.136Z,58.53
2018-11-10T04:40:40.763Z,52.73
2018-11-10T04:43:10.353Z,50.60
2018-11-10T04:45:39.922Z,59.47
2018-11-10T04:48:09.568Z,63.17
2018-11-10T04:50:39.207Z,58.83
2018-11-10T04:53:08.876Z,54.47
2018-11-10T04:55:38.547Z,56.27
2018-11-10T04:58:08.195Z,52.90
2018-11-10T05:00:37.825Z,55.30
2018-11-10T05:03:07.710Z,57.53
2018-11-10T05:05:37.396Z,56.87
2018-11-10T05:08:07.167Z,55.63
2018-11-10T05:10:36.851Z,56.13
2018-11-10T05:13:06.578Z,61.83
2018-11-10T05:15:36.834Z,52.90
2018-11-10T05:18:06.590Z,49.73
2018-11-10T05:20:36.603Z,49.43
2018-11-10T05:23:06.743Z,54.67
2018-11-10T05:25:36.609Z,58.10
2018-11-10T05:28:06.261Z,59.20
2018-11-10T05:30:35.927Z,55.67
2018-11-10T05:33:06.416Z,51.97
2018-11-10T05:35:36.061Z,58.07
2018-11-10T05:38:05.959Z,56.83
2018-11-10T05:40:35.635Z,56.87
2018-11-10T05:43:05.224Z,59.93
2018-11-10T05:45:35.045Z,58.77
2018-11-10T05:48:04.687Z,59.00
2018-11-10T05:50:34.251Z,60.20
2018-11-10T05:53:03.867Z,60.77
2018-11-10T05:55:33.485Z,70.33
2018-11-10T05:58:03.062Z,64.87
2018-11-10T06:00:32.633Z,56.47
2018-11-10T06:03:02.190Z,64.30
2018-11-10T06:05:31.713Z,60.60
2018-11-10T06:08:01.303Z,58.00
2018-11-10T06:10:31.074Z,64.07
2018-11-10T06:13:00.578Z,60.97
2018-11-10T06:15:30.134Z,56.13
2018-11-10T06:17:59.610Z,59.37
2018-11-10T06:20:29.211Z,56.53
2018-11-10T06:22:58.908Z,54.77
2018-11-10T06:25:28.539Z,51.77
2018-11-10T06:27:58.212Z,53.23
2018-11-10T06:30:27.787Z,55.33
2018-11-10T06:32:57.342Z,45.57
2018-11-10T06:35:26.992Z,44.60
2018-11-10T06:37:56.533Z,45.30
2018-11-10T06:40:26.136Z,51.47
2018-11-10T06:42:55.783Z,39.93
2018-11-10T06:45:25.324Z,45.80
2018-11-10T06:47:54.919Z,41.20
2018-11-10T06:50:24.523Z,43.50
2018-11-10T06:52:54.187Z,41.83
2018-11-10T06:55:23.832Z,44.77
2018-11-10T06:57:53.360Z,42.13
2018-11-10T07:00:23.072Z,42.67
2018-11-10T07:02:52.637Z,42.20
2018-11-10T07:05:22.232Z,41.80
2018-11-10T07:07:51.789Z,41.27
2018-11-10T07:10:21.345Z,37.13
2018-11-10T07:12:50.909Z,38.83
2018-11-10T07:15:20.487Z,38.90
2018-11-10T07:17:50.054Z,39.30
2018-11-10T07:20:19.643Z,43.17
2018-11-10T07:22:49.140Z,41.13
2018-11-10T07:25:18.691Z,40.33
2018-11-10T07:27:48.279Z,40.30
2018-11-10T07:30:17.841Z,46.23
2018-11-10T07:32:47.428Z,42.40
2018-11-10T07:35:17.089Z,39.57
2018-11-10T07:37:46.786Z,36.37
2018-11-10T07:40:16.385Z,36.33
2018-11-10T07:42:45.977Z,33.63
2018-11-10T07:45:16.362Z,37.50
2018-11-10T07:47:46.034Z,35.13
2018-11-10T07:50:15.618Z,35.33
2018-11-10T07:52:45.199Z,33.77
2018-11-10T07:55:15.743Z,33.43
2018-11-10T07:57:45.313Z,35.10
2018-11-10T08:00:15.495Z,38.33
2018-11-10T08:02:45.077Z,39.00
2018-11-10T08:05:15.201Z,40.13
2018-11-10T08:07:45.129Z,43.43
2018-11-10T08:10:15.472Z,37.40
2018-11-10T08:12:45.129Z,37.90
2018-11-10T08:15:16.112Z,39.50
2018-11-10T08:17:46.621Z,36.43
2018-11-10T08:20:16.216Z,40.00
2018-11-10T08:22:45.808Z,42.33
2018-11-10T08:25:15.960Z,38.07
2018-11-10T08:27:45.566Z,44.57
2018-11-10T08:30:15.565Z,38.63
2018-11-10T08:32:45.323Z,42.07
2018-11-10T08:35:15.653Z,42.47
2018-11-10T08:37:45.288Z,34.37
2018-11-10T08:40:16.051Z,39.63
2018-11-10T08:42:45.707Z,36.93
2018-11-10T08:45:15.999Z,34.17
2018-11-10T08:47:45.955Z,34.63
2018-11-10T08:50:17.272Z,33.03
2018-11-10T08:52:46.877Z,36.03
2018-11-10T08:55:16.502Z,33.67
2018-11-10T08:57:46.186Z,33.53
2018-11-10T09:00:15.754Z,34.50
2018-11-10T09:02:45.286Z,32.57
2018-11-10T09:05:14.927Z,28.07
2018-11-10T09:07:44.454Z,30.17
2018-11-10T09:10:14.779Z,30.77
2018-11-10T09:12:44.363Z,29.40
2018-11-10T09:15:15.496Z,29.87
2018-11-10T09:17:45.700Z,29.23
2018-11-10T09:20:16.478Z,34.00
2018-11-10T09:22:45.573Z,32.77
2018-11-10T09:25:16.631Z,32.83
2018-11-10T09:27:46.208Z,32.83
2018-11-10T09:30:17.032Z,33.27
2018-11-10T09:32:46.563Z,30.50
2018-11-10T09:35:16.555Z,37.63
2018-11-10T09:37:46.217Z,32.23
2018-11-10T09:40:16.843Z,31.80
2018-11-10T09:42:46.535Z,32.80
2018-11-10T09:45:17.082Z,32.37
2018-11-10T09:47:46.744Z,33.80
2018-11-10T09:50:18.992Z,33.23
2018-11-10T09:52:48.659Z,32.47
2018-11-10T09:55:18.689Z,36.13
2018-11-10T09:57:48.262Z,34.83
2018-11-10T10:00:20.393Z,34.00
2018-11-10T10:02:50.586Z,37.47
2018-11-10T10:05:19.820Z,42.40
2018-11-10T10:07:49.379Z,37.60
2018-11-10T10:10:19.377Z,39.03
2018-11-10T10:12:49.012Z,38.47
2018-11-10T10:15:19.397Z,40.33
2018-11-10T10:17:49.208Z,45.13
2018-11-10T10:20:19.830Z,41.77
2018-11-10T10:22:50.167Z,38.10
2018-11-10T10:25:20.313Z,38.67
2018-11-10T10:27:50.385Z,42.17
2018-11-10T10:30:23.309Z,35.43
2018-11-10T10:32:52.936Z,38.87
2018-11-10T10:35:22.754Z,38.70
2018-11-10T10:37:59.319Z,36.20
2018-11-10T10:40:29.191Z,36.07
2018-11-10T10:42:58.912Z,41.67
2018-11-10T10:45:28.572Z,39.13
2018-11-10T10:47:58.209Z,39.40
2018-11-10T10:50:29.598Z,40.67
2018-11-10T10:52:59.376Z,37.73
2018-11-10T10:55:29.345Z,40.40
2018-11-10T10:57:59.216Z,39.47
2018-11-10T11:00:34.133Z,40.27
2018-11-10T11:03:08.939Z,36.33
2018-11-10T11:05:47.492Z,39.57
2018-11-10T11:08:17.246Z,40.17
2018-11-10T11:10:47.037Z,40.37
2018-11-10T11:13:16.749Z,39.93
2018-11-10T11:15:46.457Z,44.57
2018-11-10T11:18:16.160Z,42.80
2018-11-10T11:20:46.097Z,42.80
2018-11-10T11:23:16.018Z,43.23
2018-11-10T11:25:45.813Z,40.27
2018-11-10T11:28:15.719Z,40.80
2018-11-10T11:30:45.610Z,40.00
2018-11-10T11:33:15.451Z,44.20
2018-11-10T11:35:45.620Z,42.40
2018-11-10T11:38:15.557Z,39.13
2018-11-10T11:40:46.612Z,43.60
2018-11-10T11:43:16.724Z,38.40
2018-11-10T11:45:47.101Z,39.17
2018-11-10T11:48:17.543Z,40.77
2018-11-10T11:50:47.855Z,39.73
2018-11-10T11:53:18.155Z,43.30
2018-11-10T11:55:48.394Z,40.27
2018-11-10T11:58:18.674Z,40.47
2018-11-10T12:00:48.839Z,37.30
2018-11-10T12:03:19.062Z,39.03
2018-11-10T12:05:49.289Z,39.60
2018-11-10T12:08:19.582Z,40.03
2018-11-10T12:10:49.881Z,36.50
2018-11-10T12:13:19.981Z,41.13
2018-11-10T12:15:50.302Z,45.97
2018-11-10T12:18:20.545Z,38.23
2018-11-10T12:20:50.784Z,39.03
2018-11-10T12:23:21.988Z,40.97
2018-11-10T12:25:52.775Z,39.20
2018-11-10T12:28:23.421Z,39.00
2018-11-10T12:30:54.314Z,38.43
2018-11-10T12:33:24.756Z,38.77
2018-11-10T12:35:55.056Z,40.47
2018-11-10T12:38:25.482Z,39.10
2018-11-10T12:40:55.854Z,38.60
2018-11-10T12:43:26.123Z,37.10
2018-11-10T12:45:56.495Z,37.13
2018-11-10T12:48:27.039Z,36.40
2018-11-10T12:50:57.346Z,36.63
2018-11-10T12:53:27.729Z,35.10
2018-11-10T12:55:58.051Z,39.47
2018-11-10T12:58:28.303Z,37.27
2018-11-10T13:00:58.628Z,38.57
2018-11-10T13:03:28.958Z,38.77
2018-11-10T13:05:59.378Z,36.50
2018-11-10T13:08:29.664Z,36.90
2018-11-10T13:10:59.914Z,35.80
2018-11-10T13:13:30.161Z,37.67
2018-11-10T13:16:00.502Z,37.63
2018-11-10T13:18:31.563Z,35.73
2018-11-10T13:21:02.044Z,37.30
2018-11-10T13:23:32.355Z,36.73
2018-11-10T13:26:02.691Z,36.13
2018-11-10T13:28:33.097Z,38.90
2018-11-10T13:31:03.680Z,39.80
2018-11-10T13:33:34.031Z,43.67
2018-11-10T13:36:04.665Z,38.20
2018-11-10T13:38:35.016Z,40.73
2018-11-10T13:41:05.420Z,40.97
2018-11-10T13:43:35.913Z,32.87
2018-11-10T13:46:06.254Z,33.53
2018-11-10T13:48:36.974Z,33.63
2018-11-10T13:51:09.618Z,39.30
2018-11-10T13:53:39.911Z,37.07
2018-11-10T13:56:10.265Z,40.90
2018-11-10T13:58:40.690Z,34.47
2018-11-10T14:01:11.626Z,34.33
2018-11-10T14:03:42.045Z,37.13
2018-11-10T14:06:12.384Z,36.97
2018-11-10T14:08:42.843Z,36.50
2018-11-10T14:11:14.211Z,39.17
2018-11-10T14:13:48.728Z,36.53
2018-11-10T14:16:19.976Z,39.03
2018-11-10T14:18:50.421Z,38.40
2018-11-10T14:21:20.725Z,37.60
2018-11-10T14:23:51.036Z,38.60
2018-11-10T14:26:21.445Z,35.87
2018-11-10T14:28:51.730Z,37.37
2018-11-10T14:31:22.079Z,37.67
2018-11-10T14:33:53.249Z,37.93
2018-11-10T14:36:23.881Z,43.43
2018-11-10T14:38:54.265Z,40.30
2018-11-10T14:41:24.654Z,41.67
2018-11-10T14:43:55.087Z,39.17
2018-11-10T14:46:25.920Z,38.37
2018-11-10T14:48:56.371Z,40.20
2018-11-10T14:51:26.606Z,44.80
2018-11-10T14:53:57.020Z,46.13
2018-11-10T14:56:30.574Z,43.07
2018-11-10T14:59:00.940Z,40.60
2018-11-10T15:01:31.357Z,41.90
2018-11-10T15:04:01.775Z,42.07
2018-11-10T15:06:33.559Z,41.25
2018-11-10T15:09:04.694Z,43.27
2018-11-10T15:11:35.135Z,43.70
2018-11-10T15:14:05.558Z,43.23
2018-11-10T15:16:36.035Z,41.70
2018-11-10T15:19:06.563Z,43.97
2018-11-10T15:21:36.922Z,40.23
2018-11-10T15:24:07.666Z,43.17
2018-11-10T15:26:38.074Z,46.87
2018-11-10T15:29:09.713Z,42.17
2018-11-10T15:31:40.130Z,41.50
2018-11-10T15:34:10.673Z,43.87
2018-11-10T15:36:41.569Z,40.03
2018-11-10T15:39:11.983Z,45.07
2018-11-10T15:41:42.294Z,47.33
2018-11-10T15:44:13.177Z,45.43
2018-11-10T15:46:44.316Z,53.80
2018-11-10T15:49:15.730Z,48.57
2018-11-10T15:51:46.532Z,49.17
2018-11-10T15:54:17.740Z,48.43
2018-11-10T15:56:48.168Z,53.63
2018-11-10T15:59:18.588Z,51.73
2018-11-10T16:01:49.478Z,50.67
2018-11-10T16:04:19.855Z,49.60
2018-11-10T16:06:50.241Z,53.40
2018-11-10T16:09:20.758Z,51.17
2018-11-10T16:11:55.116Z,54.47
2018-11-10T16:14:25.536Z,74.23
2018-11-10T16:28:25.547Z,57.37
2018-11-10T16:30:55.937Z,60.73
2018-11-10T16:33:26.352Z,67.83
2018-11-10T16:35:56.758Z,69.23
2018-11-10T16:38:27.350Z,78.30
2018-11-10T16:40:58.364Z,81.50
2018-11-10T16:43:29.747Z,79.17
2018-11-10T16:51:46.571Z,94.47
2018-11-10T16:54:16.936Z,129.30
2018-11-10T16:56:47.466Z,116.73
2018-11-10T16:59:18.465Z,108.50
2018-11-10T17:01:48.871Z,85.60
2018-11-10T17:04:19.278Z,102.97
2018-11-10T17:06:49.674Z,195.07
2018-11-10T17:09:20.057Z,187.20
2018-11-10T17:11:51.462Z,233.20
2018-11-10T17:14:22.035Z,278.33
2018-11-10T17:16:52.499Z,1962.83
2018-11-10T17:19:22.996Z,1999.90
2018-11-10T17:21:53.770Z,1999.90
2018-11-10T17:24:25.511Z,1999.90
2018-11-10T17:26:55.957Z,288.83
2018-11-10T17:29:26.415Z,70.47
2018-11-10T17:31:57.888Z,57.83
2018-11-10T17:34:28.300Z,56.93
2018-11-10T17:36:58.763Z,55.63
2018-11-10T17:39:29.183Z,58.40
2018-11-10T17:41:59.569Z,55.07
2018-11-10T17:44:31.664Z,61.07
2018-11-10T17:47:03.055Z,61.10
2018-11-10T17:49:33.489Z,58.17
2018-11-10T17:52:04.763Z,60.27
2018-11-10T17:54:35.212Z,57.70
2018-11-10T17:57:05.650Z,60.43
2018-11-10T17:59:36.711Z,67.83
2018-11-10T18:02:07.274Z,71.80
2018-11-10T18:04:37.711Z,61.33
2018-11-10T18:07:09.714Z,61.70
2018-11-10T18:09:40.183Z,63.67
2018-11-10T18:12:10.731Z,58.60
2018-11-10T18:14:44.030Z,61.40
2018-11-10T18:17:14.468Z,66.57
2018-11-10T18:19:45.830Z,63.23
2018-11-10T18:22:16.598Z,83.57
2018-11-10T18:24:47.009Z,77.70
2018-11-10T18:27:17.563Z,73.80
2018-11-10T18:29:48.045Z,75.70
2018-11-10T18:32:23.522Z,72.53
2018-11-10T18:34:53.901Z,69.63
2018-11-10T18:37:24.447Z,70.37
2018-11-10T18:39:56.800Z,77.30
2018-11-10T18:42:27.455Z,71.33
2018-11-10T18:44:58.872Z,73.70
2018-11-10T18:47:30.329Z,74.03
2018-11-10T18:50:01.625Z,70.57
2018-11-10T18:52:32.263Z,78.07
2018-11-10T18:55:03.013Z,84.33
2018-11-10T18:57:34.408Z,76.90
2018-11-10T19:00:05.451Z,69.97
2018-11-10T19:02:44.683Z,69.93
2018-11-10T19:05:17.533Z,76.73
2018-11-10T19:07:48.061Z,74.90
2018-11-10T19:10:19.481Z,82.53
2018-11-10T19:12:50.792Z,83.13
2018-11-10T19:15:22.328Z,80.70
2018-11-10T19:17:52.738Z,81.03
2018-11-10T19:20:23.341Z,84.70
2018-11-10T19:22:53.725Z,77.07
2018-11-10T19:25:24.180Z,70.73
2018-11-10T19:27:54.603Z,65.23
2018-11-10T19:30:25.054Z,70.20
2018-11-10T19:32:55.519Z,67.77
2018-11-10T19:35:26.443Z,68.20
2018-11-10T19:37:56.852Z,77.03
2018-11-10T19:40:27.273Z,75.03
2018-11-10T19:42:57.729Z,65.73
2018-11-10T19:45:28.177Z,61.40
2018-11-10T19:47:58.614Z,67.80
2018-11-10T19:50:29.184Z,63.77
2018-11-10T19:52:59.615Z,60.47
2018-11-10T19:55:30.004Z,66.17
2018-11-10T19:58:00.415Z,62.90
2018-11-10T20:00:30.850Z,60.00
2018-11-10T20:03:01.318Z,65.13
2018-11-10T20:05:31.680Z,70.63
2018-11-10T20:08:02.088Z,68.13
2018-11-10T20:10:32.636Z,67.10
2018-11-10T20:13:03.105Z,63.60
2018-11-10T20:15:33.504Z,65.03
2018-11-10T20:18:03.915Z,67.67
2018-11-10T20:20:34.310Z,69.77
2018-11-10T20:23:04.780Z,63.27
2018-11-10T20:25:35.177Z,63.73
2018-11-10T20:28:05.766Z,64.83
2018-11-10T20:33:19.024Z,58.77
2018-11-10T20:35:49.397Z,62.50
2018-11-10T20:38:19.776Z,62.70
2018-11-10T20:40:50.197Z,63.97
2018-11-10T20:43:20.545Z,65.47
2018-11-10T20:45:50.965Z,68.13
2018-11-10T20:48:21.475Z,69.70
2018-11-10T20:50:52.048Z,69.93
2018-11-10T20:53:22.441Z,68.80
2018-11-10T20:55:52.921Z,69.00
2018-11-10T20:58:29.644Z,75.67
2018-11-10T21:01:00.080Z,90.13
2018-11-10T21:03:31.755Z,87.63
2018-11-10T21:06:03.420Z,84.83
2018-11-10T21:08:33.863Z,74.30
2018-11-10T21:11:04.193Z,71.00
2018-11-10T21:13:34.717Z,73.90
2018-11-10T21:16:05.160Z,67.80
2018-11-10T21:18:35.520Z,64.97
2018-11-10T21:21:06.550Z,69.10
2018-11-10T21:23:36.917Z,65.60
2018-11-10T21:26:07.298Z,74.63
2018-11-10T21:28:37.720Z,66.27
2018-11-10T21:31:08.071Z,77.87
2018-11-10T21:33:38.461Z,73.07
2018-11-10T21:36:08.848Z,77.67
2018-11-10T21:38:39.203Z,74.97
2018-11-10T21:41:09.476Z,79.37
2018-11-10T21:43:39.859Z,76.63
2018-11-10T21:46:10.153Z,71.37
2018-11-10T21:48:40.480Z,71.67
2018-11-10T21:51:10.807Z,74.43
2018-11-10T21:53:40.808Z,72.13
2018-11-10T21:56:10.629Z,69.83
2018-11-10T21:58:40.515Z,73.13
2018-11-10T22:01:10.620Z,76.23
2018-11-10T22:03:40.900Z,74.27
2018-11-10T22:06:11.295Z,68.93
2018-11-10T22:08:41.585Z,75.10
2018-11-10T22:11:11.870Z,80.77
2018-11-10T22:13:42.169Z,93.63
2018-11-10T22:16:12.611Z,85.73
2018-11-10T22:18:43.002Z,79.73
2018-11-10T22:21:13.372Z,72.30
2018-11-10T22:23:43.617Z,73.70
2018-11-10T22:26:14.621Z,73.70
2018-11-10T22:28:45.001Z,73.37
2018-11-10T22:31:15.340Z,70.77
2018-11-10T22:33:46.669Z,67.30
2018-11-10T22:36:16.884Z,71.53
2018-11-10T22:38:46.980Z,68.03
2018-11-10T22:41:16.675Z,64.70
2018-11-10T22:43:46.666Z,65.57
2018-11-10T22:46:16.618Z,67.67
2018-11-10T22:48:46.256Z,69.43
2018-11-10T22:51:15.862Z,68.73
2018-11-10T22:53:45.595Z,70.03
2018-11-10T22:56:15.246Z,64.13
2018-11-10T22:58:44.836Z,70.43
2018-11-10T23:01:14.430Z,67.80
2018-11-10T23:03:44.215Z,66.17
2018-11-10T23:06:13.946Z,63.60
2018-11-10T23:08:43.531Z,64.40
2018-11-10T23:11:13.181Z,63.47
2018-11-10T23:13:42.739Z,62.67
2018-11-10T23:16:12.329Z,69.97
2018-11-10T23:18:42.100Z,66.97
2018-11-10T23:21:11.712Z,67.13
2018-11-10T23:23:41.393Z,57.13
2018-11-10T23:26:11.037Z,60.87
2018-11-10T23:28:40.623Z,63.53
2018-11-10T23:31:10.201Z,64.90
2018-11-10T23:33:40.060Z,69.37
2018-11-10T23:36:09.618Z,71.17
2018-11-10T23:38:39.184Z,85.13
2018-11-10T23:41:08.709Z,73.90
2018-11-10T23:43:38.392Z,71.07
2018-11-10T23:46:08.004Z,67.40
2018-11-10T23:48:37.547Z,65.77
2018-11-10T23:51:07.526Z,67.60
2018-11-10T23:53:37.126Z,71.47
2018-11-10T23:56:06.732Z,73.90
2018-11-10T23:58:37.023Z,72.90
